Ottawa Macdonald-Cartier International Airport
CYOW : now visible

Airfield :











YOU CAN JOIN US ON...

 
LOGIN :

Register | Disclaimer

   EN    FR    IT 

 









Legend :    VFR   Marginal VFR   IFR   Intensive IFR   Very Intensive IFR
Visi :
Ceiling :
>= 8 km
>= 3000ft
5 to 8 km
1000 to 3000 ft
1500m to 5 km
500 to 1000 ft
800 to 1500m
200 to 500 ft
< 800m
< 200 ft
Symbols :   Thunderstorms  Fog  Heavy snow  Heavy precipitations  Wind > 20 kt






- Airport Elevation : 374 ft
- IATA code : YOW


CYOW - Ottawa Macdonald-Cartier International

CURRENT METAR :
  • 080600Z 05008KT 15SM BKN180 BKN220 02/M08 A2964 RMK AC5CI1 SLP041

EXPIRED METARs :
  • 080543Z 05009KT 15SM BKN180 BKN220 02/M08 A2963 RMK AC5CI1 SLP040
  • 080500Z 06009KT 15SM BKN180 BKN220 05/M09 A2964 RMK AC5CI1 SLP042
  • 080400Z 03008KT 15SM FEW160 BKN200 05/M06 A2967 RMK AC1CI7 AC TR SLP052

TAF TAF CYOW
Valid from the 08 at 06:00 until the 09 at 06:00 UTC


080538Z 0806/0906 07008KT P6SM BKN150 OVC200
FM081100 07010KT P6SM OVC100
FM081700 07010KT P6SM OVC070
FM082100 09008KT P6SM OVC040
FM090300 13008KT P6SM OVC030
FM090500 13008KT 6SM -SHRA BR OVC012 RMK NXT FCST BY 080900Z



MET'MAP, your aeronautical weather chart ! - Copyright ORBIFLY December 2007 - Disclaimer

ORBIFLY MET'MAP TEAM :

Programming & Development : Alexandra Zaïnal
Concept & original design : Baudouin d'Aumeries
Assistance for programming : Marc-Olivier Méhu
Technical & hardware support : Manuel Goepfert

Contact : metmap@orbifly.com




SOURCES & CREDITS :

   NOAA       Earth
Advisory